createdAt,value
2019-04-06T00:04:50.626Z,21.33
2019-04-06T00:09:52.476Z,30.00
2019-04-06T00:14:54.266Z,29.80
2019-04-06T00:19:55.977Z,25.37
2019-04-06T00:24:57.666Z,21.40
2019-04-06T00:29:59.367Z,26.47
2019-04-06T00:35:01.127Z,24.63
2019-04-06T00:40:04.163Z,22.83
2019-04-06T00:45:06.117Z,29.60
2019-04-06T00:50:07.985Z,24.43
2019-04-06T00:55:09.742Z,27.17
2019-04-06T01:00:12.563Z,27.50
2019-04-06T01:05:14.767Z,26.97
2019-04-06T01:10:16.480Z,30.07
2019-04-06T01:15:18.179Z,27.60
2019-04-06T01:20:19.933Z,24.10
2019-04-06T01:25:23.766Z,30.50
2019-04-06T01:30:25.533Z,26.47
2019-04-06T01:35:27.655Z,26.23
2019-04-06T01:40:29.344Z,25.53
2019-04-06T01:45:34.299Z,30.43
2019-04-06T01:50:36.132Z,30.67
2019-04-06T01:55:37.933Z,28.17
2019-04-06T02:00:41.705Z,28.33
2019-04-06T02:05:43.797Z,26.83
2019-04-06T02:10:46.520Z,33.83
2019-04-06T02:15:49.044Z,27.57
2019-04-06T02:20:51.325Z,25.17
2019-04-06T02:25:54.881Z,29.33
2019-04-06T02:30:58.688Z,33.27
2019-04-06T02:36:09.896Z,25.07
2019-04-06T02:41:13.449Z,30.20
2019-04-06T02:46:20.253Z,25.40
2019-04-06T02:51:22.378Z,25.67
2019-04-06T02:56:24.079Z,25.90
2019-04-06T03:01:25.888Z,24.17
2019-04-06T03:06:31.053Z,28.10
2019-04-06T03:11:32.849Z,29.77
2019-04-06T03:16:35.058Z,30.30
2019-04-06T03:21:37.678Z,30.10
2019-04-06T03:26:39.382Z,27.27
2019-04-06T03:31:41.093Z,28.33
2019-04-06T03:36:42.884Z,30.03
2019-04-06T03:41:44.558Z,52.87
2019-04-06T03:46:46.646Z,28.50
2019-04-06T03:51:48.578Z,28.50
2019-04-06T03:56:50.826Z,26.77
2019-04-06T04:01:54.143Z,71.20
2019-04-06T04:06:55.998Z,68.90
2019-04-06T04:11:57.692Z,47.40
2019-04-06T04:16:59.603Z,76.97
2019-04-06T04:22:01.921Z,39.57
2019-04-06T04:27:03.619Z,32.90
2019-04-06T04:32:05.313Z,28.10
2019-04-06T04:37:07.129Z,29.87
2019-04-06T04:42:08.829Z,29.53
2019-04-06T04:47:10.660Z,33.37
2019-04-06T04:52:12.446Z,32.40
2019-04-06T04:57:14.134Z,31.07
2019-04-06T05:02:15.938Z,31.53
2019-04-06T05:07:17.744Z,59.73
2019-04-06T05:12:19.552Z,33.07
2019-04-06T05:17:21.313Z,32.40
2019-04-06T05:22:23.006Z,30.07
2019-04-06T05:27:24.764Z,30.47
2019-04-06T05:32:26.510Z,33.83
2019-04-06T05:37:28.243Z,33.47
2019-04-06T05:42:29.918Z,56.57
2019-04-06T05:47:31.620Z,44.07
2019-04-06T05:52:33.754Z,35.57
2019-04-06T05:57:37.431Z,35.07
2019-04-06T06:02:41.327Z,44.83
2019-04-06T06:07:42.673Z,53.07
2019-04-06T06:12:44.479Z,38.43
2019-04-06T06:17:46.439Z,40.37
2019-04-06T06:22:48.210Z,46.13
2019-04-06T06:27:49.944Z,44.93
2019-04-06T06:32:51.749Z,40.50
2019-04-06T06:37:53.645Z,46.40
2019-04-06T06:42:55.502Z,47.90
2019-04-06T06:47:57.783Z,41.20
2019-04-06T06:52:59.584Z,41.20
2019-04-06T06:58:01.329Z,45.87
2019-04-06T07:03:03.041Z,38.80
2019-04-06T07:08:04.943Z,35.03
2019-04-06T07:13:06.980Z,40.83
2019-04-06T07:18:09.085Z,46.37
2019-04-06T07:23:10.798Z,53.73
2019-04-06T07:28:12.906Z,38.90
2019-04-06T07:33:14.716Z,41.50
2019-04-06T07:38:16.346Z,56.23
2019-04-06T07:43:18.033Z,66.67
2019-04-06T07:48:20.134Z,55.57
2019-04-06T07:53:21.838Z,65.03
2019-04-06T07:58:23.541Z,66.00
2019-04-06T08:03:25.241Z,68.30
2019-04-06T08:08:28.859Z,74.43
2019-04-06T08:13:30.707Z,78.20
2019-04-06T08:18:33.138Z,75.13
2019-04-06T08:23:35.944Z,58.83
2019-04-06T08:28:37.659Z,69.03
2019-04-06T08:33:39.456Z,54.23
2019-04-06T08:38:41.258Z,64.53
2019-04-06T08:43:43.068Z,50.27
2019-04-06T08:48:45.384Z,52.00
2019-04-06T08:53:47.119Z,44.60
2019-04-06T08:58:48.945Z,49.27
2019-04-06T09:03:50.803Z,42.93
2019-04-06T09:08:52.600Z,44.90
2019-04-06T09:13:54.541Z,40.10
2019-04-06T09:18:56.611Z,38.00
2019-04-06T09:24:00.442Z,38.40
2019-04-06T09:29:02.159Z,23.80
2019-04-06T09:39:18.393Z,33.67
2019-04-06T09:44:21.882Z,34.90
2019-04-06T09:49:25.806Z,31.57
2019-04-06T09:54:29.509Z,33.00
2019-04-06T09:59:42.250Z,29.97
2019-04-06T10:04:58.114Z,34.87
2019-04-06T10:10:04.987Z,28.83
2019-04-06T10:15:17.599Z,28.33
2019-04-06T10:20:39.478Z,26.80
2019-04-06T10:25:53.733Z,25.60
2019-04-06T10:31:00.999Z,32.70
2019-04-06T10:36:05.037Z,25.97
2019-04-06T10:41:14.387Z,36.50
2019-04-06T10:52:08.222Z,37.00
2019-04-06T10:57:12.412Z,33.90
2019-04-06T11:02:32.873Z,31.00
2019-04-06T11:07:54.853Z,25.80
2019-04-06T11:13:13.921Z,31.03
2019-04-06T11:18:34.268Z,38.97
2019-04-06T11:23:37.725Z,27.83
2019-04-06T11:28:47.517Z,33.03
2019-04-06T11:34:06.065Z,34.50
2019-04-06T11:39:09.653Z,28.20
2019-04-06T11:44:22.430Z,33.53
2019-04-06T11:49:31.806Z,22.80
2019-04-06T11:54:38.952Z,32.67
2019-04-06T11:59:48.846Z,30.57
2019-04-06T12:05:04.472Z,35.30
2019-04-06T12:10:26.546Z,30.90
2019-04-06T12:15:36.274Z,30.43
2019-04-06T12:20:40.568Z,36.70
2019-04-06T12:25:47.059Z,31.33
2019-04-06T12:31:07.795Z,34.77
2019-04-06T12:36:14.863Z,35.70
2019-04-06T12:41:21.587Z,31.87
2019-04-06T12:46:25.275Z,30.53
2019-04-06T12:51:28.846Z,43.13
2019-04-06T12:56:41.601Z,32.73
2019-04-06T13:01:51.622Z,34.97
2019-04-06T13:06:55.746Z,32.17
2019-04-06T13:12:09.014Z,27.50
2019-04-06T13:17:21.796Z,31.03
2019-04-06T13:22:31.299Z,38.67
2019-04-06T13:27:44.369Z,44.90
2019-04-06T13:32:53.181Z,31.10
2019-04-06T13:38:08.841Z,33.00
2019-04-06T13:43:15.268Z,34.80
2019-04-06T13:48:18.823Z,32.27
2019-04-06T13:53:25.163Z,32.27
2019-04-06T13:58:29.998Z,32.90
2019-04-06T14:03:46.301Z,30.73
2019-04-06T14:08:52.614Z,38.60
2019-04-06T14:14:08.378Z,33.70
2019-04-06T14:19:28.622Z,33.90
2019-04-06T14:24:38.359Z,32.50
2019-04-06T14:29:51.521Z,32.07
2019-04-06T14:35:05.326Z,37.50
2019-04-06T14:40:12.157Z,38.37
2019-04-06T14:45:28.979Z,36.87
2019-04-06T14:50:38.669Z,40.60
2019-04-06T14:55:42.761Z,35.70
2019-04-06T15:00:46.264Z,35.67
2019-04-06T15:05:53.033Z,36.70
2019-04-06T15:11:06.185Z,31.23
2019-04-06T15:16:16.306Z,33.87
2019-04-06T15:21:34.609Z,37.40
2019-04-06T15:26:44.192Z,46.27
2019-04-06T15:32:02.307Z,44.17
2019-04-06T15:37:08.696Z,31.27
2019-04-06T15:42:20.717Z,39.90
2019-04-06T15:47:24.293Z,37.83
2019-04-06T15:52:40.163Z,37.80
2019-04-06T15:57:53.344Z,39.40
2019-04-06T16:03:09.346Z,34.77
2019-04-06T16:08:24.681Z,41.57
2019-04-06T16:13:37.275Z,35.70
2019-04-06T16:18:46.580Z,37.53
2019-04-06T16:24:09.205Z,35.47
2019-04-06T16:29:15.961Z,30.93
2019-04-06T16:34:19.690Z,36.07
2019-04-06T16:39:35.809Z,40.57
2019-04-06T16:44:39.735Z,34.33
2019-04-06T16:50:01.717Z,36.27
2019-04-06T16:55:18.735Z,37.30
2019-04-06T17:00:22.627Z,39.50
2019-04-06T17:05:43.191Z,34.30
2019-04-06T17:11:03.757Z,32.93
2019-04-06T17:16:16.290Z,32.37
2019-04-06T17:21:29.149Z,36.77
2019-04-06T17:26:44.793Z,36.17
2019-04-06T17:31:48.339Z,31.17
2019-04-06T17:36:57.708Z,33.63
2019-04-06T17:42:04.435Z,32.10
2019-04-06T17:47:13.562Z,31.20
2019-04-06T17:52:19.449Z,33.00
2019-04-06T17:57:23.412Z,33.70
2019-04-06T18:02:48.263Z,30.07
2019-04-06T18:08:03.838Z,33.20
2019-04-06T18:13:07.635Z,36.40
2019-04-06T18:18:10.222Z,28.90
2019-04-06T18:23:11.977Z,31.17
2019-04-06T18:28:14.140Z,30.07
2019-04-06T18:33:18.323Z,35.30
2019-04-06T18:38:36.709Z,33.80
2019-04-06T18:43:38.496Z,25.33
2019-04-06T18:48:40.497Z,25.40
2019-04-06T18:53:42.572Z,35.43
2019-04-06T18:58:44.786Z,28.47
2019-04-06T19:03:46.629Z,27.33
2019-04-06T19:08:48.302Z,25.93
2019-04-06T19:13:49.996Z,34.90
2019-04-06T19:18:52.043Z,28.93
2019-04-06T19:23:53.900Z,28.93
2019-04-06T19:28:55.499Z,28.70
2019-04-06T19:33:57.170Z,27.90
2019-04-06T19:38:59.544Z,28.00
2019-04-06T19:44:01.302Z,31.40
2019-04-06T19:49:03.116Z,30.20
2019-04-06T19:54:06.445Z,33.30
2019-04-06T19:59:08.710Z,32.10
2019-04-06T20:04:10.698Z,30.97
2019-04-06T20:09:13.345Z,25.00
2019-04-06T20:14:15.291Z,30.47
2019-04-06T20:19:17.128Z,26.23
2019-04-06T20:24:18.902Z,32.47
2019-04-06T20:29:20.677Z,29.30
2019-04-06T20:34:23.008Z,25.03
2019-04-06T20:39:25.331Z,37.50
2019-04-06T20:44:27.745Z,24.77
2019-04-06T20:49:29.724Z,28.60
2019-04-06T20:54:31.934Z,28.07
2019-04-06T20:59:33.776Z,27.47
2019-04-06T21:04:35.498Z,25.20
2019-04-06T21:09:37.259Z,27.43
2019-04-06T21:14:39.062Z,25.60
2019-04-06T21:19:40.871Z,29.30
2019-04-06T21:24:42.926Z,34.80
2019-04-06T21:29:45.398Z,28.03
2019-04-06T21:34:47.390Z,25.53
2019-04-06T21:39:49.489Z,27.60
2019-04-06T21:44:51.842Z,27.50
2019-04-06T21:49:53.558Z,32.77
2019-04-06T21:54:55.285Z,26.20
2019-04-06T21:59:57.951Z,23.77
2019-04-06T22:05:00.053Z,23.90
2019-04-06T22:10:02.651Z,28.07
2019-04-06T22:15:05.888Z,28.50
2019-04-06T22:20:07.704Z,25.40
2019-04-06T22:25:09.523Z,23.70
2019-04-06T22:30:11.372Z,27.97
2019-04-06T22:35:13.530Z,24.13
2019-04-06T22:40:15.707Z,22.67
2019-04-06T22:45:25.497Z,24.57
2019-04-06T22:50:27.334Z,31.13
2019-04-06T22:55:29.139Z,25.50
2019-04-06T23:00:37.470Z,23.57
2019-04-06T23:05:49.850Z,26.17
2019-04-06T23:10:52.194Z,23.97
2019-04-06T23:15:54.233Z,23.40
2019-04-06T23:20:56.501Z,23.80
2019-04-06T23:25:58.782Z,22.33
2019-04-06T23:31:00.513Z,24.47
2019-04-06T23:36:02.191Z,25.67
2019-04-06T23:41:04.700Z,27.57
2019-04-06T23:46:06.501Z,23.63
2019-04-06T23:51:08.319Z,25.70
2019-04-06T23:56:10.156Z,26.47
